Time,TemperatureF,DewpointF,PressureIn,WindDirection,WindDirectionDegrees,WindSpeedMPH,WindSpeedGustMPH,Humidity,HourlyPrecipIn,Conditions,Clouds,dailyrainin,SoftwareType,DateUTC
2013-01-11 00:00:00,39.5,29.1,30.49,ESE,116,3.0,4.0,66,0.00,,---,0.00,VWS V14.01,2013-01-11 05:00:00,
2013-01-11 00:02:00,39.4,29.0,30.48,ESE,121,3.0,3.0,66,0.00,,---,0.00,VWS V14.01,2013-01-11 05:02:00,
2013-01-11 00:03:00,39.4,29.0,30.48,SE,128,4.0,4.0,66,0.00,,---,0.00,VWS V14.01,2013-01-11 05:03:00,
2013-01-11 00:09:00,39.4,29.0,30.48,ESE,120,4.0,4.0,66,0.00,,---,0.00,VWS V14.01,2013-01-11 05:09:00,
2013-01-11 00:14:00,39.5,29.1,30.48,ESE,119,4.0,5.0,66,0.00,,---,0.00,VWS V14.01,2013-01-11 05:14:00,
2013-01-11 00:19:00,39.4,29.0,30.48,SE,124,3.0,4.0,66,0.00,,---,0.00,VWS V14.01,2013-01-11 05:19:00,
2013-01-11 00:24:00,39.2,29.2,30.48,ESE,119,4.0,5.0,67,0.00,,---,0.00,VWS V14.01,2013-01-11 05:24:00,
2013-01-11 00:29:00,39.3,28.9,30.48,ESE,114,3.0,4.0,66,0.00,,---,0.00,VWS V14.01,2013-01-11 05:29:00,
2013-01-11 00:34:00,39.2,29.2,30.48,ESE,108,3.0,5.0,67,0.00,,---,0.00,VWS V14.01,2013-01-11 05:34:00,
2013-01-11 00:39:00,39.1,29.1,30.48,ESE,115,4.0,5.0,67,0.00,,---,0.00,VWS V14.01,2013-01-11 05:39:00,
2013-01-11 00:44:00,38.9,29.2,30.48,ESE,115,4.0,5.0,68,0.00,,---,0.00,VWS V14.01,2013-01-11 05:44:00,
2013-01-11 00:49:00,38.8,29.2,30.48,East,101,4.0,6.0,68,0.00,,---,0.00,VWS V14.01,2013-01-11 05:49:00,
2013-01-11 00:54:00,38.9,29.2,30.48,ESE,107,2.0,5.0,68,0.00,,---,0.00,VWS V14.01,2013-01-11 05:54:00,
2013-01-11 00:59:00,38.9,28.9,30.48,ESE,121,3.0,4.0,67,0.00,,---,0.00,VWS V14.01,2013-01-11 05:59:00,
2013-01-11 01:04:00,38.8,28.8,30.48,SE,139,3.0,5.0,67,0.00,,---,0.00,VWS V14.01,2013-01-11 06:04:00,
2013-01-11 01:09:00,38.7,29.1,30.48,East,96,3.0,4.0,68,0.00,,---,0.00,VWS V14.01,2013-01-11 06:09:00,
2013-01-11 01:15:00,38.5,29.2,30.48,SE,128,2.0,4.0,69,0.00,,---,0.00,VWS V14.01,2013-01-11 06:15:00,
2013-01-11 01:20:00,38.4,29.5,30.47,ESE,113,5.0,5.0,70,0.00,,---,0.00,VWS V14.01,2013-01-11 06:20:00,
2013-01-11 01:25:00,38.3,29.4,30.47,ESE,117,3.0,4.0,70,0.00,,---,0.00,VWS V14.01,2013-01-11 06:25:00,
2013-01-11 01:30:00,38.3,29.0,30.46,ESE,114,5.0,5.0,69,0.00,,---,0.00,VWS V14.01,2013-01-11 06:30:00,
2013-01-11 01:35:00,38.5,29.2,30.46,ESE,111,3.0,4.0,69,0.00,,---,0.00,VWS V14.01,2013-01-11 06:35:00,
2013-01-11 01:40:00,38.3,29.4,30.46,SE,127,3.0,4.0,70,0.00,,---,0.00,VWS V14.01,2013-01-11 06:40:00,
2013-01-11 01:45:00,38.4,29.1,30.46,ESE,121,3.0,4.0,69,0.00,,---,0.00,VWS V14.01,2013-01-11 06:45:00,
2013-01-11 01:50:00,38.6,29.3,30.46,ESE,115,3.0,5.0,69,0.00,,---,0.00,VWS V14.01,2013-01-11 06:50:00,
2013-01-11 01:55:00,38.6,29.3,30.46,ESE,119,5.0,5.0,69,0.00,,---,0.00,VWS V14.01,2013-01-11 06:55:00,
2013-01-11 02:00:00,38.5,29.2,30.47,SE,129,3.0,4.0,69,0.00,,---,0.00,VWS V14.01,2013-01-11 07:00:00,
2013-01-11 02:06:00,38.2,29.3,30.47,East,100,4.0,4.0,70,0.00,,---,0.00,VWS V14.01,2013-01-11 07:06:00,
2013-01-11 02:11:00,38.1,29.5,30.46,ESE,118,3.0,5.0,71,0.00,,---,0.00,VWS V14.01,2013-01-11 07:11:00,
2013-01-11 02:16:00,37.9,29.4,30.46,SE,127,2.0,4.0,71,0.00,,---,0.00,VWS V14.01,2013-01-11 07:16:00,
2013-01-11 02:21:00,37.8,29.3,30.46,SE,131,2.0,4.0,71,0.00,,---,0.00,VWS V14.01,2013-01-11 07:21:00,
2013-01-11 02:26:00,37.8,29.3,30.46,SE,131,3.0,4.0,71,0.00,,---,0.00,VWS V14.01,2013-01-11 07:26:00,
2013-01-11 02:31:00,37.8,29.3,30.46,ESE,117,3.0,4.0,71,0.00,,---,0.00,VWS V14.01,2013-01-11 07:31:00,
2013-01-11 02:37:00,37.8,29.3,30.46,ESE,116,3.0,3.0,71,0.00,,---,0.00,VWS V14.01,2013-01-11 07:37:00,
2013-01-11 02:42:00,37.7,29.2,30.46,ESE,123,4.0,4.0,71,0.00,,---,0.00,VWS V14.01,2013-01-11 07:42:00,
2013-01-11 02:47:00,37.6,29.1,30.45,ESE,122,3.0,4.0,71,0.00,,---,0.00,VWS V14.01,2013-01-11 07:47:00,
2013-01-11 02:52:00,37.6,29.4,30.46,ESE,108,4.0,5.0,72,0.00,,---,0.00,VWS V14.01,2013-01-11 07:52:00,
2013-01-11 02:57:00,37.6,29.4,30.45,SE,128,4.0,5.0,72,0.00,,---,0.00,VWS V14.01,2013-01-11 07:57:00,
2013-01-11 03:02:00,37.8,29.6,30.45,SE,128,3.0,5.0,72,0.00,,---,0.00,VWS V14.01,2013-01-11 08:02:00,
2013-01-11 03:07:00,38.0,29.8,30.45,ESE,117,4.0,6.0,72,0.00,,---,0.00,VWS V14.01,2013-01-11 08:07:00,
2013-01-11 03:13:00,38.2,30.0,30.45,ESE,104,3.0,3.0,72,0.00,,---,0.00,VWS V14.01,2013-01-11 08:13:00,
2013-01-11 03:18:00,38.3,29.7,30.45,SE,128,4.0,5.0,71,0.00,,---,0.00,VWS V14.01,2013-01-11 08:18:00,
2013-01-11 03:23:00,38.4,29.8,30.44,ESE,120,4.0,6.0,71,0.00,,---,0.00,VWS V14.01,2013-01-11 08:23:00,
2013-01-11 03:28:00,38.4,29.8,30.44,ESE,121,3.0,4.0,71,0.00,,---,0.00,VWS V14.01,2013-01-11 08:28:00,
2013-01-11 03:33:00,38.3,29.7,30.44,SE,131,4.0,6.0,71,0.00,,---,0.00,VWS V14.01,2013-01-11 08:33:00,
2013-01-11 03:38:00,38.3,29.4,30.43,ESE,111,4.0,6.0,70,0.00,,---,0.00,VWS V14.01,2013-01-11 08:38:00,
2013-01-11 03:43:00,38.3,29.4,30.43,ESE,117,1.0,4.0,70,0.00,,---,0.00,VWS V14.01,2013-01-11 08:43:00,
2013-01-11 03:48:00,38.0,29.5,30.43,ESE,116,1.0,4.0,71,0.00,,---,0.00,VWS V14.01,2013-01-11 08:48:00,
2013-01-11 03:53:00,37.8,29.3,30.43,ESE,117,3.0,4.0,71,0.00,,---,0.00,VWS V14.01,2013-01-11 08:53:00,
2013-01-11 03:59:00,37.5,29.3,30.42,ESE,116,2.0,4.0,72,0.00,,---,0.00,VWS V14.01,2013-01-11 08:59:00,
2013-01-11 04:04:00,37.3,29.1,30.43,ESE,112,3.0,4.0,72,0.00,,---,0.00,VWS V14.01,2013-01-11 09:04:00,
2013-01-11 04:09:00,37.3,29.5,30.43,SE,139,1.0,2.0,73,0.00,,---,0.00,VWS V14.01,2013-01-11 09:09:00,
2013-01-11 04:14:00,37.2,29.4,30.43,ESE,113,4.0,4.0,73,0.00,,---,0.00,VWS V14.01,2013-01-11 09:14:00,
2013-01-11 04:19:00,37.2,29.4,30.42,SE,131,3.0,5.0,73,0.00,,---,0.00,VWS V14.01,2013-01-11 09:19:00,
2013-01-11 04:24:00,37.1,29.6,30.43,SE,128,2.0,3.0,74,0.00,,---,0.00,VWS V14.01,2013-01-11 09:24:00,
2013-01-11 04:29:00,37.1,29.6,30.43,SE,131,4.0,5.0,74,0.00,,---,0.00,VWS V14.01,2013-01-11 09:29:00,
2013-01-11 04:34:00,37.1,29.6,30.43,ESE,110,4.0,5.0,74,0.00,,---,0.00,VWS V14.01,2013-01-11 09:34:00,
2013-01-11 04:39:00,37.2,29.7,30.43,ESE,120,4.0,5.0,74,0.00,,---,0.00,VWS V14.01,2013-01-11 09:39:00,
2013-01-11 04:44:00,37.3,29.8,30.42,SE,136,2.0,5.0,74,0.00,,---,0.00,VWS V14.01,2013-01-11 09:44:00,
2013-01-11 04:49:00,37.4,29.5,30.42,ESE,121,3.0,4.0,73,0.00,,---,0.00,VWS V14.01,2013-01-11 09:49:00,
2013-01-11 04:55:00,37.3,29.8,30.42,SE,127,3.0,3.0,74,0.00,,---,0.00,VWS V14.01,2013-01-11 09:55:00,
2013-01-11 05:00:00,37.2,29.4,30.42,ESE,111,3.0,5.0,73,0.00,,---,0.00,VWS V14.01,2013-01-11 10:00:00,
2013-01-11 05:05:00,37.2,29.4,30.41,ESE,122,3.0,4.0,73,0.00,,---,0.00,VWS V14.01,2013-01-11 10:05:00,
2013-01-11 05:10:00,37.1,29.3,30.41,ESE,110,4.0,4.0,73,0.00,,---,0.00,VWS V14.01,2013-01-11 10:10:00,
2013-01-11 05:15:00,37.0,29.5,30.40,ESE,110,4.0,4.0,74,0.00,,---,0.00,VWS V14.01,2013-01-11 10:15:00,
2013-01-11 05:20:00,36.7,29.5,30.40,ESE,105,4.0,4.0,75,0.00,,---,0.00,VWS V14.01,2013-01-11 10:20:00,
2013-01-11 05:25:00,36.6,29.4,30.40,East,95,3.0,4.0,75,0.00,,---,0.00,VWS V14.01,2013-01-11 10:25:00,
2013-01-11 05:31:00,36.6,29.4,30.40,ESE,113,2.0,3.0,75,0.00,,---,0.00,VWS V14.01,2013-01-11 10:31:00,
2013-01-11 05:36:00,36.4,29.6,30.39,ESE,115,3.0,4.0,76,0.00,,---,0.00,VWS V14.01,2013-01-11 10:36:00,
2013-01-11 05:41:00,36.4,29.6,30.39,SE,132,4.0,4.0,76,0.00,,---,0.00,VWS V14.01,2013-01-11 10:41:00,
2013-01-11 05:46:00,36.6,29.1,30.39,East,99,3.0,5.0,74,0.00,,---,0.00,VWS V14.01,2013-01-11 10:46:00,
2013-01-11 05:51:00,36.8,29.3,30.39,ESE,117,3.0,4.0,74,0.00,,---,0.00,VWS V14.01,2013-01-11 10:51:00,
2013-01-11 05:56:00,36.9,29.4,30.40,ESE,110,4.0,5.0,74,0.00,,---,0.00,VWS V14.01,2013-01-11 10:56:00,
2013-01-11 06:01:00,36.9,29.1,30.40,SE,124,4.0,5.0,73,0.00,,---,0.00,VWS V14.01,2013-01-11 11:01:00,
2013-01-11 06:06:00,36.9,29.1,30.40,SE,136,4.0,6.0,73,0.00,,---,0.00,VWS V14.01,2013-01-11 11:06:00,
2013-01-11 06:11:00,36.9,29.1,30.40,ESE,122,4.0,5.0,73,0.00,,---,0.00,VWS V14.01,2013-01-11 11:11:00,
2013-01-11 06:16:00,36.7,29.2,30.38,ESE,109,4.0,4.0,74,0.00,,---,0.00,VWS V14.01,2013-01-11 11:16:00,
2013-01-11 06:21:00,36.5,29.0,30.38,ESE,112,4.0,4.0,74,0.00,,---,0.00,VWS V14.01,2013-01-11 11:21:00,
2013-01-11 06:26:00,36.3,28.8,30.38,SE,131,2.0,3.0,74,0.00,,---,0.00,VWS V14.01,2013-01-11 11:26:00,
2013-01-11 06:31:00,36.1,29.0,30.37,SE,131,3.0,5.0,75,0.00,,---,0.00,VWS V14.01,2013-01-11 11:31:00,
2013-01-11 06:36:00,36.2,28.7,30.38,ESE,108,4.0,6.0,74,0.00,,---,0.00,VWS V14.01,2013-01-11 11:36:00,
2013-01-11 06:42:00,36.3,28.8,30.37,ESE,110,4.0,4.0,74,0.00,,---,0.00,VWS V14.01,2013-01-11 11:42:00,
2013-01-11 06:47:00,36.4,28.9,30.38,ESE,122,4.0,4.0,74,0.00,,---,0.00,VWS V14.01,2013-01-11 11:47:00,
2013-01-11 06:52:00,36.5,29.0,30.39,ESE,104,5.0,5.0,74,0.00,,---,0.00,VWS V14.01,2013-01-11 11:52:00,
2013-01-11 06:57:00,36.6,29.1,30.39,ESE,116,2.0,3.0,74,0.00,,---,0.00,VWS V14.01,2013-01-11 11:57:00,
2013-01-11 07:02:00,36.6,29.4,30.39,ESE,110,1.0,3.0,75,0.00,,---,0.00,VWS V14.01,2013-01-11 12:02:00,
2013-01-11 07:07:00,36.6,29.1,30.39,SE,140,4.0,4.0,74,0.00,,---,0.00,VWS V14.01,2013-01-11 12:07:00,
2013-01-11 07:12:00,36.6,29.1,30.38,SE,127,2.0,5.0,74,0.00,,---,0.00,VWS V14.01,2013-01-11 12:12:00,
2013-01-11 07:17:00,36.5,29.7,30.38,ESE,107,3.0,5.0,76,0.00,,---,0.00,VWS V14.01,2013-01-11 12:17:00,
2013-01-11 07:22:00,36.2,30.3,30.39,SE,124,3.0,4.0,79,0.00,,---,0.00,VWS V14.01,2013-01-11 12:22:00,
2013-01-11 07:27:00,36.0,30.1,30.39,SE,131,0.0,1.0,79,0.00,,---,0.00,VWS V14.01,2013-01-11 12:27:00,
2013-01-11 07:32:00,35.9,30.3,30.39,East,80,1.0,1.0,80,0.00,,---,0.00,VWS V14.01,2013-01-11 12:32:00,
2013-01-11 07:37:00,35.8,30.5,30.38,ESE,117,1.0,3.0,81,0.00,,---,0.00,VWS V14.01,2013-01-11 12:37:00,
2013-01-11 07:43:00,35.8,30.2,30.38,East,97,2.0,2.0,80,0.00,,---,0.00,VWS V14.01,2013-01-11 12:43:00,
2013-01-11 07:48:00,35.7,30.1,30.39,SE,131,1.0,2.0,80,0.00,,---,0.00,VWS V14.01,2013-01-11 12:48:00,
2013-01-11 07:53:00,35.6,30.0,30.39,SE,127,0.0,1.0,80,0.00,,---,0.00,VWS V14.01,2013-01-11 12:53:00,
2013-01-11 07:58:00,35.6,30.0,30.39,ESE,113,2.0,2.0,80,0.00,,---,0.00,VWS V14.01,2013-01-11 12:58:00,
2013-01-11 08:03:00,35.5,30.0,30.38,ESE,120,2.0,2.0,80,0.00,,---,0.00,VWS V14.01,2013-01-11 13:03:00,
2013-01-11 08:08:00,35.5,30.0,30.38,East,95,1.0,3.0,80,0.00,,---,0.00,VWS V14.01,2013-01-11 13:08:00,
2013-01-11 08:13:00,35.5,30.3,30.38,ESE,109,2.0,2.0,81,0.00,,---,0.00,VWS V14.01,2013-01-11 13:13:00,
2013-01-11 08:18:00,35.5,30.0,30.38,SE,129,0.0,1.0,80,0.00,,---,0.00,VWS V14.01,2013-01-11 13:18:00,
2013-01-11 08:23:00,35.5,30.3,30.38,SE,134,2.0,2.0,81,0.00,,---,0.00,VWS V14.01,2013-01-11 13:23:00,
2013-01-11 08:28:00,35.6,30.0,30.38,SE,131,2.0,2.0,80,0.00,,---,0.00,VWS V14.01,2013-01-11 13:28:00,
2013-01-11 08:34:00,35.7,30.1,30.38,ESE,123,1.0,1.0,80,0.00,,---,0.00,VWS V14.01,2013-01-11 13:34:00,
2013-01-11 08:39:00,35.8,29.9,30.38,ESE,108,1.0,2.0,79,0.00,,---,0.00,VWS V14.01,2013-01-11 13:39:00,
2013-01-11 08:44:00,35.9,30.3,30.37,ESE,107,2.0,2.0,80,0.00,,---,0.00,VWS V14.01,2013-01-11 13:44:00,
2013-01-11 08:49:00,36.0,30.1,30.37,ESE,117,2.0,4.0,79,0.00,,---,0.00,VWS V14.01,2013-01-11 13:49:00,
2013-01-11 08:54:00,36.1,30.5,30.37,SE,124,3.0,3.0,80,0.00,,---,0.00,VWS V14.01,2013-01-11 13:54:00,
2013-01-11 08:59:00,36.3,30.7,30.37,ESE,119,3.0,4.0,80,0.00,,---,0.00,VWS V14.01,2013-01-11 13:59:00,
2013-01-11 09:04:00,36.4,30.8,30.36,ESE,105,1.0,4.0,80,0.00,,---,0.00,VWS V14.01,2013-01-11 14:04:00,
2013-01-11 09:09:00,36.4,30.8,30.35,ESE,115,4.0,4.0,80,0.00,,---,0.00,VWS V14.01,2013-01-11 14:09:00,
2013-01-11 09:15:00,36.7,31.1,30.36,SE,131,2.0,4.0,80,0.00,,---,0.00,VWS V14.01,2013-01-11 14:15:00,
2013-01-11 09:20:00,36.9,31.0,30.35,ESE,122,3.0,4.0,79,0.00,,---,0.00,VWS V14.01,2013-01-11 14:20:00,
2013-01-11 09:25:00,36.9,31.0,30.35,ESE,109,3.0,4.0,79,0.00,,---,0.00,VWS V14.01,2013-01-11 14:25:00,
2013-01-11 09:30:00,37.1,31.2,30.35,SE,140,2.0,4.0,79,0.00,,---,0.00,VWS V14.01,2013-01-11 14:30:00,
2013-01-11 09:35:00,37.3,31.7,30.34,ESE,110,6.0,6.0,80,0.00,,---,0.00,VWS V14.01,2013-01-11 14:35:00,
2013-01-11 09:40:00,37.5,31.9,30.34,East,97,4.0,5.0,80,0.00,,---,0.00,VWS V14.01,2013-01-11 14:40:00,
2013-01-11 09:45:00,37.4,32.1,30.34,SE,134,3.0,4.0,81,0.00,,---,0.00,VWS V14.01,2013-01-11 14:45:00,
2013-01-11 09:50:00,37.5,32.2,30.34,ESE,109,4.0,4.0,81,0.00,,---,0.00,VWS V14.01,2013-01-11 14:50:00,
2013-01-11 09:55:00,37.5,32.2,30.33,SE,126,3.0,4.0,81,0.00,,---,0.00,VWS V14.01,2013-01-11 14:55:00,
2013-01-11 10:01:00,37.6,32.6,30.34,ESE,113,1.0,2.0,82,0.00,,---,0.00,VWS V14.01,2013-01-11 15:01:00,
2013-01-11 10:06:00,37.6,32.9,30.33,ESE,113,1.0,2.0,83,0.00,,---,0.00,VWS V14.01,2013-01-11 15:06:00,
2013-01-11 10:11:00,37.6,32.6,30.33,ENE,63,0.0,3.0,82,0.00,,---,0.00,VWS V14.01,2013-01-11 15:11:00,
2013-01-11 10:16:00,37.7,33.0,30.34,ESE,109,2.0,2.0,83,0.00,,---,0.00,VWS V14.01,2013-01-11 15:16:00,
2013-01-11 10:21:00,37.8,33.1,30.33,ESE,105,2.0,3.0,83,0.00,,---,0.00,VWS V14.01,2013-01-11 15:21:00,
2013-01-11 10:26:00,37.7,33.0,30.34,SE,140,1.0,2.0,83,0.00,,---,0.00,VWS V14.01,2013-01-11 15:26:00,
2013-01-11 10:31:00,37.8,33.1,30.33,SE,136,1.0,2.0,83,0.00,,---,0.00,VWS V14.01,2013-01-11 15:31:00,
2013-01-11 10:36:00,38.0,33.3,30.33,SSE,158,0.0,1.0,83,0.00,,---,0.00,VWS V14.01,2013-01-11 15:36:00,
2013-01-11 10:41:00,38.2,33.2,30.32,SSE,158,1.0,2.0,82,0.00,,---,0.00,VWS V14.01,2013-01-11 15:41:00,
2013-01-11 10:46:00,38.6,33.9,30.32,SE,125,1.0,3.0,83,0.00,,---,0.00,VWS V14.01,2013-01-11 15:46:00,
2013-01-11 10:51:00,39.1,34.1,30.31,East,95,1.0,3.0,82,0.00,,---,0.00,VWS V14.01,2013-01-11 15:51:00,
2013-01-11 10:56:00,39.4,34.4,30.31,ESE,115,1.0,2.0,82,0.00,,---,0.00,VWS V14.01,2013-01-11 15:56:00,
2013-01-11 11:02:00,39.6,34.3,30.31,SE,124,1.0,2.0,81,0.00,,---,0.00,VWS V14.01,2013-01-11 16:02:00,
2013-01-11 11:07:00,39.8,34.5,30.30,East,98,2.0,2.0,81,0.00,,---,0.00,VWS V14.01,2013-01-11 16:07:00,
2013-01-11 11:12:00,39.6,34.0,30.30,East,92,1.0,2.0,80,0.00,,---,0.00,VWS V14.01,2013-01-11 16:12:00,
2013-01-11 11:17:00,39.5,34.2,30.29,ESE,119,1.0,2.0,81,0.00,,---,0.00,VWS V14.01,2013-01-11 16:17:00,
2013-01-11 11:22:00,39.4,34.1,30.29,North,5,4.0,4.0,81,0.00,,---,0.00,VWS V14.01,2013-01-11 16:22:00,
2013-01-11 11:27:00,39.5,34.2,30.28,SE,130,2.0,2.0,81,0.00,,---,0.00,VWS V14.01,2013-01-11 16:27:00,
2013-01-11 11:32:00,39.7,34.7,30.28,ESE,110,2.0,2.0,82,0.00,,---,0.00,VWS V14.01,2013-01-11 16:32:00,
2013-01-11 11:37:00,40.4,35.0,30.27,East,98,4.0,5.0,81,0.00,,---,0.00,VWS V14.01,2013-01-11 16:37:00,
2013-01-11 11:42:00,40.9,35.2,30.26,ESE,114,2.0,2.0,80,0.00,,---,0.00,VWS V14.01,2013-01-11 16:42:00,
2013-01-11 11:47:00,40.9,34.9,30.26,NE,34,5.0,5.0,79,0.00,,---,0.00,VWS V14.01,2013-01-11 16:47:00,
2013-01-11 11:52:00,40.9,35.2,30.25,SE,132,1.0,4.0,80,0.00,,---,0.00,VWS V14.01,2013-01-11 16:52:00,
2013-01-11 11:57:00,41.1,35.1,30.25,ESE,115,3.0,3.0,79,0.00,,---,0.00,VWS V14.01,2013-01-11 16:57:00,
2013-01-11 12:03:00,41.4,35.4,30.25,ESE,102,2.0,2.0,79,0.00,,---,0.00,VWS V14.01,2013-01-11 17:03:00,
2013-01-11 12:08:00,41.6,34.9,30.24,ESE,105,1.0,4.0,77,0.00,,---,0.00,VWS V14.01,2013-01-11 17:08:00,
2013-01-11 12:13:00,41.6,35.3,30.25,SE,144,0.0,2.0,78,0.00,,---,0.00,VWS V14.01,2013-01-11 17:13:00,
2013-01-11 12:18:00,41.6,34.9,30.25,ESE,118,3.0,3.0,77,0.00,,---,0.00,VWS V14.01,2013-01-11 17:18:00,
2013-01-11 12:23:00,41.3,35.0,30.24,SE,128,1.0,4.0,78,0.00,,---,0.00,VWS V14.01,2013-01-11 17:23:00,
2013-01-11 12:28:00,41.2,34.9,30.23,East,101,2.0,3.0,78,0.00,,---,0.00,VWS V14.01,2013-01-11 17:28:00,
2013-01-11 12:33:00,41.1,34.8,30.23,ESE,109,2.0,2.0,78,0.00,,---,0.00,VWS V14.01,2013-01-11 17:33:00,
2013-01-11 12:39:00,41.1,34.8,30.24,ENE,68,1.0,2.0,78,0.00,,---,0.00,VWS V14.01,2013-01-11 17:39:00,
2013-01-11 12:44:00,41.1,34.8,30.23,East,79,1.0,2.0,78,0.00,,---,0.00,VWS V14.01,2013-01-11 17:44:00,
2013-01-11 12:49:00,41.1,34.8,30.22,ESE,105,3.0,4.0,78,0.00,,---,0.00,VWS V14.01,2013-01-11 17:49:00,
2013-01-11 12:54:00,41.1,35.1,30.21,SE,136,2.0,3.0,79,0.00,,---,0.00,VWS V14.01,2013-01-11 17:54:00,
2013-01-11 12:59:00,40.8,35.7,30.20,East,100,3.0,3.0,82,0.00,,---,0.00,VWS V14.01,2013-01-11 17:59:00,
2013-01-11 13:04:00,40.6,35.5,30.20,SE,142,2.0,3.0,82,0.00,,---,0.00,VWS V14.01,2013-01-11 18:04:00,
2013-01-11 13:09:00,40.5,35.1,30.21,ESE,114,3.0,4.0,81,0.00,,---,0.00,VWS V14.01,2013-01-11 18:09:00,
2013-01-11 13:14:00,40.5,35.1,30.20,ESE,103,3.0,6.0,81,0.00,,---,0.00,VWS V14.01,2013-01-11 18:14:00,
2013-01-11 13:20:00,40.5,35.5,30.20,ESE,121,2.0,3.0,82,0.00,,---,0.00,VWS V14.01,2013-01-11 18:20:00,
2013-01-11 13:25:00,40.6,35.5,30.20,SE,139,2.0,2.0,82,0.00,,---,0.00,VWS V14.01,2013-01-11 18:25:00,
2013-01-11 13:30:00,40.6,35.5,30.20,SE,128,2.0,3.0,82,0.00,,---,0.00,VWS V14.01,2013-01-11 18:30:00,
2013-01-11 13:35:00,40.5,35.1,30.19,SE,136,2.0,5.0,81,0.00,,---,0.00,VWS V14.01,2013-01-11 18:35:00,
2013-01-11 13:40:00,40.5,35.1,30.19,SE,128,3.0,4.0,81,0.00,,---,0.00,VWS V14.01,2013-01-11 18:40:00,
2013-01-11 13:45:00,40.5,35.5,30.19,ESE,121,1.0,4.0,82,0.00,,---,0.00,VWS V14.01,2013-01-11 18:45:00,
2013-01-11 13:50:00,40.4,35.3,30.19,SE,127,3.0,5.0,82,0.00,,---,0.00,VWS V14.01,2013-01-11 18:50:00,
2013-01-11 13:56:00,40.4,36.0,30.18,ESE,108,3.0,3.0,84,0.01,,---,0.01,VWS V14.01,2013-01-11 18:56:00,
2013-01-11 14:01:00,40.0,36.2,30.19,East,97,3.0,4.0,86,0.01,,---,0.01,VWS V14.01,2013-01-11 19:01:00,
2013-01-11 14:06:00,39.7,35.9,30.18,ESE,112,3.0,4.0,86,0.01,,---,0.01,VWS V14.01,2013-01-11 19:06:00,
2013-01-11 14:11:00,39.7,36.4,30.17,East,100,7.0,7.0,88,0.01,,---,0.01,VWS V14.01,2013-01-11 19:11:00,
2013-01-11 14:16:00,39.8,36.2,30.17,SE,136,2.0,6.0,87,0.01,,---,0.01,VWS V14.01,2013-01-11 19:16:00,
2013-01-11 14:21:00,39.9,36.1,30.17,East,95,2.0,6.0,86,0.01,,---,0.01,VWS V14.01,2013-01-11 19:21:00,
2013-01-11 14:26:00,40.0,36.2,30.17,SE,134,4.0,6.0,86,0.01,,---,0.01,VWS V14.01,2013-01-11 19:26:00,
2013-01-11 14:31:00,40.1,36.3,30.17,ESE,122,5.0,6.0,86,0.01,,---,0.01,VWS V14.01,2013-01-11 19:31:00,
2013-01-11 14:36:00,40.0,36.5,30.17,East,97,3.0,3.0,87,0.01,,---,0.01,VWS V14.01,2013-01-11 19:36:00,
2013-01-11 14:41:00,40.0,36.5,30.17,ESE,108,7.0,7.0,87,0.01,,---,0.01,VWS V14.01,2013-01-11 19:41:00,
2013-01-11 14:46:00,39.9,36.3,30.17,ESE,109,2.0,7.0,87,0.01,,---,0.01,VWS V14.01,2013-01-11 19:46:00,
2013-01-11 14:52:00,39.8,36.5,30.17,SSE,149,4.0,6.0,88,0.01,,---,0.01,VWS V14.01,2013-01-11 19:52:00,
2013-01-11 14:57:00,39.7,36.7,30.16,ESE,119,4.0,6.0,89,0.00,,---,0.01,VWS V14.01,2013-01-11 19:57:00,
2013-01-11 15:02:00,39.7,36.7,30.17,SE,126,2.0,4.0,89,0.00,,---,0.01,VWS V14.01,2013-01-11 20:02:00,
2013-01-11 15:07:00,39.5,37.1,30.15,SE,124,4.0,5.0,91,0.01,,---,0.02,VWS V14.01,2013-01-11 20:07:00,
2013-01-11 15:12:00,39.3,37.2,30.15,ESE,113,4.0,5.0,92,0.02,,---,0.03,VWS V14.01,2013-01-11 20:12:00,
2013-01-11 15:17:00,39.1,37.2,30.15,SE,140,4.0,6.0,93,0.03,,---,0.04,VWS V14.01,2013-01-11 20:17:00,
2013-01-11 15:22:00,38.9,37.0,30.16,ESE,103,2.0,4.0,93,0.04,,---,0.05,VWS V14.01,2013-01-11 20:22:00,
2013-01-11 15:27:00,38.8,37.2,30.16,SE,136,3.0,3.0,94,0.05,,---,0.06,VWS V14.01,2013-01-11 20:27:00,
2013-01-11 15:32:00,38.7,37.1,30.16,East,80,2.0,5.0,94,0.05,,---,0.06,VWS V14.01,2013-01-11 20:32:00,
2013-01-11 15:37:00,38.7,37.1,30.16,SE,138,2.0,3.0,94,0.05,,---,0.06,VWS V14.01,2013-01-11 20:37:00,
2013-01-11 15:42:00,38.6,37.3,30.15,ESE,116,4.0,4.0,95,0.05,,---,0.06,VWS V14.01,2013-01-11 20:42:00,
2013-01-11 15:47:00,38.5,37.2,30.15,ESE,120,2.0,3.0,95,0.05,,---,0.06,VWS V14.01,2013-01-11 20:47:00,
2013-01-11 15:52:00,38.5,37.2,30.15,SE,134,2.0,4.0,95,0.05,,---,0.06,VWS V14.01,2013-01-11 20:52:00,
2013-01-11 15:57:00,38.4,37.1,30.14,East,98,3.0,4.0,95,0.06,,---,0.07,VWS V14.01,2013-01-11 20:57:00,
2013-01-11 16:02:00,38.4,37.1,30.14,SE,129,1.0,3.0,95,0.06,,---,0.07,VWS V14.01,2013-01-11 21:02:00,
2013-01-11 16:07:00,38.3,37.3,30.15,ESE,111,2.0,3.0,96,0.05,,---,0.07,VWS V14.01,2013-01-11 21:07:00,
2013-01-11 16:12:00,38.3,37.3,30.14,ESE,121,3.0,3.0,96,0.04,,---,0.07,VWS V14.01,2013-01-11 21:12:00,
2013-01-11 16:18:00,38.3,37.3,30.15,East,101,2.0,3.0,96,0.03,,---,0.07,VWS V14.01,2013-01-11 21:18:00,
2013-01-11 16:23:00,38.3,37.3,30.15,ESE,119,3.0,3.0,96,0.02,,---,0.07,VWS V14.01,2013-01-11 21:23:00,
2013-01-11 16:28:00,38.3,37.3,30.15,ESE,113,4.0,4.0,96,0.01,,---,0.07,VWS V14.01,2013-01-11 21:28:00,
2013-01-11 16:33:00,38.3,37.3,30.15,ESE,113,1.0,3.0,96,0.01,,---,0.07,VWS V14.01,2013-01-11 21:33:00,
2013-01-11 16:38:00,38.3,37.3,30.14,ESE,117,3.0,3.0,96,0.01,,---,0.07,VWS V14.01,2013-01-11 21:38:00,
2013-01-11 16:43:00,38.3,37.3,30.14,ESE,113,2.0,2.0,96,0.01,,---,0.07,VWS V14.01,2013-01-11 21:43:00,
2013-01-11 16:48:00,38.3,37.3,30.14,ESE,118,3.0,4.0,96,0.01,,---,0.07,VWS V14.01,2013-01-11 21:48:00,
2013-01-11 16:53:00,38.3,37.3,30.14,SE,131,2.0,3.0,96,0.01,,---,0.07,VWS V14.01,2013-01-11 21:53:00,
2013-01-11 16:58:00,38.3,37.3,30.14,ESE,114,2.0,4.0,96,0.00,,---,0.07,VWS V14.01,2013-01-11 21:58:00,
2013-01-11 17:03:00,38.3,37.3,30.13,SE,131,2.0,3.0,96,0.00,,---,0.07,VWS V14.01,2013-01-11 22:03:00,
2013-01-11 17:09:00,38.3,37.5,30.13,ESE,113,3.0,3.0,97,0.00,,---,0.07,VWS V14.01,2013-01-11 22:09:00,
2013-01-11 17:14:00,38.3,37.5,30.13,ENE,68,4.0,4.0,97,0.00,,---,0.07,VWS V14.01,2013-01-11 22:14:00,
2013-01-11 17:19:00,38.3,37.5,30.13,SE,132,1.0,2.0,97,0.00,,---,0.07,VWS V14.01,2013-01-11 22:19:00,
2013-01-11 17:24:00,38.4,37.6,30.13,SE,124,2.0,2.0,97,0.00,,---,0.07,VWS V14.01,2013-01-11 22:24:00,
2013-01-11 17:29:00,38.4,37.6,30.13,ESE,103,2.0,2.0,97,0.00,,---,0.07,VWS V14.01,2013-01-11 22:29:00,
2013-01-11 17:35:00,38.4,37.6,30.14,ESE,118,2.0,2.0,97,0.00,,---,0.07,VWS V14.01,2013-01-11 22:35:00,
2013-01-11 17:40:00,38.4,37.6,30.14,SE,139,2.0,2.0,97,0.00,,---,0.07,VWS V14.01,2013-01-11 22:40:00,
2013-01-11 17:45:00,38.4,37.6,30.14,ESE,110,1.0,2.0,97,0.00,,---,0.07,VWS V14.01,2013-01-11 22:45:00,
2013-01-11 17:50:00,38.4,37.6,30.14,ESE,111,1.0,2.0,97,0.00,,---,0.07,VWS V14.01,2013-01-11 22:50:00,
2013-01-11 17:55:00,38.4,37.6,30.13,ESE,113,2.0,2.0,97,0.00,,---,0.07,VWS V14.01,2013-01-11 22:55:00,
2013-01-11 18:00:00,38.4,37.6,30.13,SE,136,2.0,2.0,97,0.00,,---,0.07,VWS V14.01,2013-01-11 23:00:00,
2013-01-11 18:05:00,38.4,37.6,30.12,ESE,105,2.0,4.0,97,0.00,,---,0.07,VWS V14.01,2013-01-11 23:05:00,
2013-01-11 18:10:00,38.4,37.6,30.11,ESE,108,3.0,3.0,97,0.00,,---,0.07,VWS V14.01,2013-01-11 23:10:00,
2013-01-11 18:16:00,38.4,37.6,30.11,ESE,115,4.0,4.0,97,0.00,,---,0.07,VWS V14.01,2013-01-11 23:16:00,
2013-01-11 18:21:00,38.4,37.6,30.11,ESE,108,2.0,3.0,97,0.00,,---,0.07,VWS V14.01,2013-01-11 23:21:00,
2013-01-11 18:26:00,38.4,37.6,30.12,ESE,121,1.0,3.0,97,0.00,,---,0.07,VWS V14.01,2013-01-11 23:26:00,
2013-01-11 18:31:00,38.4,37.6,30.13,East,94,2.0,3.0,97,0.00,,---,0.07,VWS V14.01,2013-01-11 23:31:00,
2013-01-11 18:36:00,38.4,37.6,30.13,ESE,109,2.0,3.0,97,0.00,,---,0.07,VWS V14.01,2013-01-11 23:36:00,
2013-01-11 18:41:00,38.4,37.6,30.13,East,101,1.0,3.0,97,0.00,,---,0.07,VWS V14.01,2013-01-11 23:41:00,
2013-01-11 18:46:00,38.4,37.6,30.12,ESE,109,2.0,2.0,97,0.00,,---,0.07,VWS V14.01,2013-01-11 23:46:00,
2013-01-11 18:52:00,38.4,37.6,30.13,ESE,110,3.0,3.0,97,0.00,,---,0.07,VWS V14.01,2013-01-11 23:52:00,
2013-01-11 18:57:00,38.4,37.6,30.13,SE,126,2.0,2.0,97,0.00,,---,0.07,VWS V14.01,2013-01-11 23:57:00,
2013-01-11 19:02:00,38.4,37.6,30.13,ESE,119,1.0,1.0,97,0.00,,---,0.07,VWS V14.01,2013-01-12 00:02:00,
2013-01-11 19:07:00,38.4,37.6,30.12,ESE,122,2.0,2.0,97,0.00,,---,0.07,VWS V14.01,2013-01-12 00:07:00,
2013-01-11 19:12:00,38.5,37.7,30.12,ESE,110,1.0,2.0,97,0.00,,---,0.07,VWS V14.01,2013-01-12 00:12:00,
2013-01-11 19:17:00,38.5,37.7,30.12,ESE,110,3.0,3.0,97,0.00,,---,0.07,VWS V14.01,2013-01-12 00:17:00,
2013-01-11 19:22:00,38.5,37.7,30.12,SE,125,2.0,3.0,97,0.00,,---,0.07,VWS V14.01,2013-01-12 00:22:00,
2013-01-11 19:27:00,38.5,37.7,30.12,ESE,110,1.0,3.0,97,0.00,,---,0.07,VWS V14.01,2013-01-12 00:27:00,
2013-01-11 19:33:00,38.5,37.7,30.12,SE,127,1.0,2.0,97,0.00,,---,0.07,VWS V14.01,2013-01-12 00:33:00,
2013-01-11 19:38:00,38.5,37.7,30.12,ESE,120,2.0,3.0,97,0.00,,---,0.07,VWS V14.01,2013-01-12 00:38:00,
2013-01-11 19:43:00,38.4,37.6,30.12,ESE,116,3.0,3.0,97,0.00,,---,0.07,VWS V14.01,2013-01-12 00:43:00,
2013-01-11 19:48:00,38.4,37.6,30.11,East,101,2.0,2.0,97,0.00,,---,0.07,VWS V14.01,2013-01-12 00:48:00,
2013-01-11 19:53:00,38.4,37.6,30.11,ESE,117,2.0,2.0,97,0.00,,---,0.07,VWS V14.01,2013-01-12 00:53:00,
2013-01-11 19:58:00,38.4,37.6,30.11,SE,131,1.0,3.0,97,0.00,,---,0.07,VWS V14.01,2013-01-12 00:58:00,
2013-01-11 20:03:00,38.5,37.7,30.11,ESE,103,2.0,3.0,97,0.00,,---,0.07,VWS V14.01,2013-01-12 01:03:00,
2013-01-11 20:08:00,38.5,37.7,30.12,SE,145,1.0,2.0,97,0.00,,---,0.07,VWS V14.01,2013-01-12 01:08:00,
2013-01-11 20:13:00,38.5,37.7,30.12,ESE,121,2.0,2.0,97,0.00,,---,0.07,VWS V14.01,2013-01-12 01:13:00,
2013-01-11 20:18:00,38.5,37.7,30.12,SE,136,2.0,2.0,97,0.00,,---,0.07,VWS V14.01,2013-01-12 01:18:00,
2013-01-11 20:23:00,38.5,37.7,30.12,ESE,103,2.0,2.0,97,0.00,,---,0.07,VWS V14.01,2013-01-12 01:23:00,
2013-01-11 20:29:00,38.5,37.7,30.12,SE,140,0.0,1.0,97,0.00,,---,0.07,VWS V14.01,2013-01-12 01:29:00,
2013-01-11 20:34:00,38.5,37.7,30.12,SE,142,1.0,1.0,97,0.00,,---,0.07,VWS V14.01,2013-01-12 01:34:00,
2013-01-11 20:39:00,38.5,37.7,30.12,SE,143,1.0,1.0,97,0.00,,---,0.07,VWS V14.01,2013-01-12 01:39:00,
2013-01-11 20:44:00,38.5,37.7,30.11,SE,134,1.0,1.0,97,0.00,,---,0.07,VWS V14.01,2013-01-12 01:44:00,
2013-01-11 20:49:00,38.5,37.7,30.11,ESE,116,1.0,1.0,97,0.00,,---,0.07,VWS V14.01,2013-01-12 01:49:00,
2013-01-11 20:54:00,38.5,37.7,30.11,ESE,103,2.0,3.0,97,0.00,,---,0.07,VWS V14.01,2013-01-12 01:54:00,
2013-01-11 21:00:00,38.5,37.7,30.12,ESE,111,0.0,0.0,97,0.00,,---,0.07,VWS V14.01,2013-01-12 02:00:00,
2013-01-11 21:05:00,38.5,37.7,30.12,ESE,117,0.0,0.0,97,0.00,,---,0.07,VWS V14.01,2013-01-12 02:05:00,
2013-01-11 21:10:00,38.5,37.7,30.11,SE,138,0.0,0.0,97,0.00,,---,0.07,VWS V14.01,2013-01-12 02:10:00,
2013-01-11 21:15:00,38.5,37.7,30.11,ESE,113,0.0,1.0,97,0.00,,---,0.07,VWS V14.01,2013-01-12 02:15:00,
2013-01-11 21:20:00,38.4,37.6,30.11,ESE,121,0.0,0.0,97,0.00,,---,0.07,VWS V14.01,2013-01-12 02:20:00,
2013-01-11 21:25:00,38.4,37.6,30.11,ESE,121,0.0,0.0,97,0.00,,---,0.07,VWS V14.01,2013-01-12 02:25:00,
2013-01-11 21:30:00,38.4,37.6,30.11,ESE,121,0.0,0.0,97,0.00,,---,0.07,VWS V14.01,2013-01-12 02:30:00,
2013-01-11 21:35:00,38.4,37.6,30.12,SE,124,0.0,0.0,97,0.00,,---,0.07,VWS V14.01,2013-01-12 02:35:00,
2013-01-11 21:41:00,38.4,37.6,30.11,SE,124,0.0,0.0,97,0.00,,---,0.07,VWS V14.01,2013-01-12 02:41:00,
2013-01-11 21:46:00,38.3,37.5,30.11,SE,124,0.0,0.0,97,0.00,,---,0.07,VWS V14.01,2013-01-12 02:46:00,
2013-01-11 21:51:00,38.2,37.4,30.11,ESE,118,0.0,0.0,97,0.00,,---,0.07,VWS V14.01,2013-01-12 02:51:00,
2013-01-11 21:56:00,38.1,37.3,30.11,ESE,118,0.0,0.0,97,0.00,,---,0.07,VWS V14.01,2013-01-12 02:56:00,
2013-01-11 22:01:00,38.1,37.3,30.12,ESE,119,0.0,0.0,97,0.00,,---,0.07,VWS V14.01,2013-01-12 03:01:00,
2013-01-11 22:06:00,38.1,37.3,30.12,ESE,119,0.0,0.0,97,0.00,,---,0.07,VWS V14.01,2013-01-12 03:06:00,
2013-01-11 22:11:00,38.1,37.3,30.11,ESE,119,0.0,0.0,97,0.00,,---,0.07,VWS V14.01,2013-01-12 03:11:00,
2013-01-11 22:16:00,38.2,37.4,30.11,ESE,118,0.0,0.0,97,0.00,,---,0.07,VWS V14.01,2013-01-12 03:16:00,
2013-01-11 22:21:00,38.2,37.7,30.11,ESE,118,0.0,0.0,98,0.00,,---,0.07,VWS V14.01,2013-01-12 03:21:00,
2013-01-11 22:26:00,38.2,37.7,30.11,ESE,118,0.0,0.0,98,0.00,,---,0.07,VWS V14.01,2013-01-12 03:26:00,
2013-01-11 22:32:00,38.2,37.7,30.11,ESE,118,0.0,0.0,98,0.00,,---,0.07,VWS V14.01,2013-01-12 03:32:00,
2013-01-11 22:37:00,38.2,37.7,30.10,ESE,119,0.0,0.0,98,0.00,,---,0.07,VWS V14.01,2013-01-12 03:37:00,
2013-01-11 22:42:00,38.2,37.7,30.11,ESE,119,0.0,0.0,98,0.00,,---,0.07,VWS V14.01,2013-01-12 03:42:00,
2013-01-11 22:47:00,38.2,37.7,30.11,ESE,119,0.0,0.0,98,0.00,,---,0.07,VWS V14.01,2013-01-12 03:47:00,
2013-01-11 22:52:00,38.2,37.7,30.11,ESE,119,0.0,0.0,98,0.00,,---,0.07,VWS V14.01,2013-01-12 03:52:00,
2013-01-11 22:57:00,38.2,37.7,30.10,ESE,119,0.0,0.0,98,0.00,,---,0.07,VWS V14.01,2013-01-12 03:57:00,
2013-01-11 23:02:00,38.3,37.8,30.10,ESE,117,0.0,0.0,98,0.00,,---,0.07,VWS V14.01,2013-01-12 04:02:00,
2013-01-11 23:08:00,38.3,37.8,30.11,ESE,117,0.0,0.0,98,0.00,,---,0.07,VWS V14.01,2013-01-12 04:08:00,
2013-01-11 23:13:00,38.3,37.8,30.11,ESE,117,0.0,0.0,98,0.00,,---,0.07,VWS V14.01,2013-01-12 04:13:00,
2013-01-11 23:18:00,38.4,37.9,30.11,ESE,117,0.0,0.0,98,0.00,,---,0.07,VWS V14.01,2013-01-12 04:18:00,
2013-01-11 23:23:00,38.4,37.9,30.11,ESE,117,0.0,0.0,98,0.00,,---,0.07,VWS V14.01,2013-01-12 04:23:00,
2013-01-11 23:28:00,38.5,38.0,30.11,ESE,119,0.0,0.0,98,0.00,,---,0.07,VWS V14.01,2013-01-12 04:28:00,
2013-01-11 23:33:00,38.6,38.1,30.11,ESE,117,0.0,0.0,98,0.00,,---,0.07,VWS V14.01,2013-01-12 04:33:00,
2013-01-11 23:38:00,38.6,38.1,30.11,ESE,117,0.0,0.0,98,0.00,,---,0.07,VWS V14.01,2013-01-12 04:38:00,
2013-01-11 23:43:00,38.7,38.2,30.11,ESE,117,0.0,0.0,98,0.00,,---,0.07,VWS V14.01,2013-01-12 04:43:00,
2013-01-11 23:48:00,38.7,38.2,30.11,ESE,117,0.0,0.0,98,0.00,,---,0.07,VWS V14.01,2013-01-12 04:48:00,
2013-01-11 23:53:00,38.7,38.2,30.10,ESE,117,0.0,0.0,98,0.00,,---,0.07,VWS V14.01,2013-01-12 04:53:00,
2013-01-11 23:58:00,38.8,38.3,30.10,ESE,117,0.0,0.0,98,0.00,,---,0.07,VWS V14.01,2013-01-12 04:58:00,